Decoded Metar for KFLP (FLIPPIN (AWOS) in AR, USA) (IATA:FLP) | Meteo·Mobile Aviation Weather
aviador You're here:

KFLP Decoded Metar

FLIPPIN (AWOS) in AR, USA
Report Time2018-12-18 16:56:00
UTC Time2018-12-18 17:49:10
Flight Rules vfr VFR
Wind100° at 03 kt
W.Decomp.*RWY 04: 1.6 kt HW 2.5 kt RCW
W.Rank100° ranks 14
Current wind is below 100° avg. (4.4)
Visibility9999 m
Phenomena:N/A
Clouds:Few 002 Hf
Expected CloudBase > 2,400 ft AGL from Temp-Dew spread
CeilingNone
Temp08°C (ISA -6)
Dew Point02°C (66% RH)
AAT5.3°C
QNH1022 hPa
Density Alt-154 ft
Elevation719 ft
Report Wrong Elevation
Raw Report
KFLP 181656Z AUTO 10003KT 10SM FEW002 08/02 A3018 RMK AO2 SLP224
T00780022=

Extra information for KFLP:More info

Metar Taf Metar & Taf Last 4 Metars F.Rules Stats Wind Profile Meteogram Temp Stats Airport Information Weather charts Add Link Nearby VenuesMetar ALERT Operation Metar Decoded Social comments

AIRNAV info for KFLP